createdAt,value
2022-11-04T00:00:50.218Z,16.30
2022-11-04T00:03:19.944Z,16.30
2022-11-04T00:05:48.193Z,16.20
2022-11-04T00:08:25.253Z,16.20
2022-11-04T00:11:13.268Z,16.20
2022-11-04T00:13:42.191Z,16.20
2022-11-04T00:16:28.575Z,16.10
2022-11-04T00:18:58.722Z,16.10
2022-11-04T00:21:44.430Z,16.10
2022-11-04T00:24:31.697Z,16.10
2022-11-04T00:27:17.349Z,16.10
2022-11-04T00:29:45.584Z,16.10
2022-11-04T00:32:31.193Z,16.10
2022-11-04T00:35:00.761Z,16.10
2022-11-04T00:37:28.916Z,16.20
2022-11-04T00:39:57.087Z,16.10
2022-11-04T00:42:25.261Z,16.20
2022-11-04T00:44:53.399Z,16.10
2022-11-04T00:47:21.577Z,16.20
2022-11-04T00:49:49.766Z,16.20
2022-11-04T00:52:19.415Z,16.20
2022-11-04T00:54:47.622Z,16.20
2022-11-04T00:57:16.555Z,16.20
2022-11-04T00:59:45.745Z,16.30
2022-11-04T01:02:14.268Z,16.30
2022-11-04T01:04:42.539Z,16.40
2022-11-04T01:07:10.712Z,16.50
2022-11-04T01:09:40.548Z,16.70
2022-11-04T01:12:08.880Z,16.80
2022-11-04T01:14:37.281Z,16.90
2022-11-04T01:17:05.588Z,17.00
2022-11-04T01:19:34.416Z,17.10
2022-11-04T01:22:02.615Z,17.10
2022-11-04T01:24:30.912Z,17.20
2022-11-04T01:27:00.529Z,17.30
2022-11-04T01:29:28.790Z,17.30
2022-11-04T01:31:56.965Z,17.30
2022-11-04T01:34:25.157Z,17.40
2022-11-04T01:36:53.313Z,17.30
2022-11-04T01:39:21.509Z,17.40
2022-11-04T01:41:49.739Z,17.40
2022-11-04T01:44:57.347Z,17.40
2022-11-04T01:47:33.405Z,17.40
2022-11-04T01:50:06.154Z,17.40
2022-11-04T01:52:38.841Z,17.40
2022-11-04T01:55:13.995Z,17.40
2022-11-04T01:57:46.680Z,17.50
2022-11-04T02:00:18.072Z,17.50
2022-11-04T02:02:54.922Z,17.50
2022-11-04T02:05:24.213Z,17.60
2022-11-04T02:07:57.924Z,17.60
2022-11-04T02:10:28.839Z,17.60
2022-11-04T02:12:57.133Z,17.60
2022-11-04T02:15:36.309Z,17.60
2022-11-04T02:18:19.737Z,17.70
2022-11-04T02:21:12.918Z,17.70
2022-11-04T02:24:03.700Z,17.70
2022-11-04T02:27:14.815Z,17.80
2022-11-04T02:30:07.714Z,17.80
2022-11-04T02:32:43.892Z,17.80
2022-11-04T02:35:19.896Z,17.90
2022-11-04T02:37:55.610Z,17.90
2022-11-04T02:40:32.649Z,17.90
2022-11-04T02:43:05.033Z,17.90
2022-11-04T02:45:42.125Z,17.90
2022-11-04T02:48:16.737Z,17.90
2022-11-04T02:50:50.986Z,17.90
2022-11-04T02:53:23.896Z,17.90
2022-11-04T02:55:56.676Z,17.90
2022-11-04T02:58:29.923Z,17.90
2022-11-04T03:01:02.391Z,17.80
2022-11-04T03:03:35.601Z,17.80
2022-11-04T03:06:05.997Z,17.80
2022-11-04T03:08:36.841Z,17.80
2022-11-04T03:11:12.397Z,17.70
2022-11-04T03:13:45.699Z,17.70
2022-11-04T03:16:18.949Z,17.70
2022-11-04T03:18:58.369Z,17.60
2022-11-04T03:21:28.415Z,17.50
2022-11-04T03:23:56.989Z,17.50
2022-11-04T03:26:29.889Z,17.60
2022-11-04T03:29:11.282Z,17.60
2022-11-04T03:31:46.277Z,17.60
2022-11-04T03:34:14.589Z,17.60
2022-11-04T03:36:42.932Z,17.60
2022-11-04T03:39:11.454Z,17.60
2022-11-04T03:41:43.989Z,17.60
2022-11-04T03:44:12.337Z,17.60
2022-11-04T03:46:42.477Z,17.60
2022-11-04T03:49:12.935Z,17.60
2022-11-04T03:51:41.124Z,17.60
2022-11-04T03:54:09.529Z,17.70
2022-11-04T03:57:00.892Z,17.70
2022-11-04T03:59:54.176Z,17.70
2022-11-04T04:02:35.354Z,17.70
2022-11-04T04:05:08.055Z,17.70
2022-11-04T04:07:41.077Z,17.60
2022-11-04T04:10:33.856Z,17.60
2022-11-04T04:13:04.679Z,17.50
2022-11-04T04:15:44.175Z,17.50
2022-11-04T04:18:16.725Z,17.50
2022-11-04T04:20:48.174Z,17.50
2022-11-04T04:23:37.148Z,17.60
2022-11-04T04:26:25.244Z,17.60
2022-11-04T04:28:56.687Z,17.50
2022-11-04T04:31:44.113Z,17.50
2022-11-04T04:34:13.715Z,17.60
2022-11-04T04:36:47.357Z,17.70
2022-11-04T04:39:36.688Z,17.70
2022-11-04T04:42:23.209Z,17.80
2022-11-04T04:45:00.817Z,17.90
2022-11-04T04:47:33.137Z,17.90
2022-11-04T04:50:03.841Z,17.90
2022-11-04T04:52:34.846Z,17.90
2022-11-04T04:55:03.044Z,18.00
2022-11-04T04:57:31.251Z,18.00
2022-11-04T04:59:59.424Z,18.00
2022-11-04T05:02:27.770Z,18.00
2022-11-04T05:04:56.432Z,18.10
2022-11-04T05:07:26.077Z,18.10
2022-11-04T05:09:54.343Z,18.10
2022-11-04T05:12:22.713Z,18.10
2022-11-04T05:14:51.046Z,18.20
2022-11-04T05:17:19.262Z,18.20
2022-11-04T05:19:47.442Z,18.20
2022-11-04T05:22:15.568Z,18.20
2022-11-04T05:24:45.114Z,18.20
2022-11-04T05:27:13.295Z,18.20
2022-11-04T05:29:41.480Z,18.20
2022-11-04T05:32:09.664Z,18.20
2022-11-04T05:34:37.851Z,18.30
2022-11-04T05:37:05.992Z,18.30
2022-11-04T05:39:34.102Z,18.20
2022-11-04T05:42:03.637Z,18.30
2022-11-04T05:44:31.872Z,18.30
2022-11-04T05:47:00.039Z,18.40
2022-11-04T05:49:28.226Z,18.40
2022-11-04T05:51:56.480Z,18.40
2022-11-04T05:54:24.937Z,18.40
2022-11-04T05:56:53.285Z,18.40
2022-11-04T05:59:22.793Z,18.50
2022-11-04T06:01:51.307Z,18.50
2022-11-04T06:04:20.478Z,18.50
2022-11-04T06:06:48.729Z,18.60
2022-11-04T06:09:16.845Z,18.60
2022-11-04T06:11:45.344Z,18.60
2022-11-04T06:14:18.626Z,18.60
2022-11-04T06:16:48.561Z,18.60
2022-11-04T06:19:16.712Z,18.60
2022-11-04T06:21:44.916Z,18.60
2022-11-04T06:24:13.120Z,18.60
2022-11-04T06:26:41.228Z,18.60
2022-11-04T06:29:09.988Z,18.50
2022-11-04T06:31:38.269Z,18.60
2022-11-04T06:34:07.917Z,18.60
2022-11-04T06:36:36.210Z,18.60
2022-11-04T06:39:05.649Z,18.60
2022-11-04T06:41:33.820Z,18.60
2022-11-04T06:44:02.118Z,18.60
2022-11-04T06:46:33.452Z,18.70
2022-11-04T06:49:01.628Z,18.70
2022-11-04T06:51:31.245Z,18.70
2022-11-04T06:53:59.561Z,18.70
2022-11-04T06:56:27.852Z,18.70
2022-11-04T06:58:56.831Z,18.70
2022-11-04T07:01:27.413Z,18.70
2022-11-04T07:03:57.458Z,18.70
2022-11-04T07:06:26.246Z,18.70
2022-11-04T07:08:57.437Z,18.80
2022-11-04T07:11:26.196Z,18.80
2022-11-04T07:13:54.472Z,18.80
2022-11-04T07:16:22.718Z,18.80
2022-11-04T07:18:51.900Z,18.90
2022-11-04T07:21:20.074Z,18.90
2022-11-04T07:23:48.275Z,18.90
2022-11-04T07:26:17.817Z,18.90
2022-11-04T07:28:46.000Z,18.90
2022-11-04T07:31:15.027Z,18.90
2022-11-04T07:33:43.201Z,18.90
2022-11-04T07:36:13.997Z,19.00
2022-11-04T07:38:42.156Z,19.00
2022-11-04T07:41:10.503Z,19.00
2022-11-04T07:43:40.073Z,19.00
2022-11-04T07:46:11.946Z,19.10
2022-11-04T07:48:40.652Z,19.10
2022-11-04T07:51:10.722Z,19.10
2022-11-04T07:53:39.087Z,19.10
2022-11-04T07:56:09.105Z,19.10
2022-11-04T07:58:37.254Z,19.10
2022-11-04T08:01:09.097Z,19.10
2022-11-04T08:03:38.041Z,19.10
2022-11-04T08:06:07.916Z,19.10
2022-11-04T08:08:36.157Z,19.10
2022-11-04T08:11:06.590Z,19.10
2022-11-04T08:13:36.441Z,19.10
2022-11-04T08:16:07.467Z,19.20
2022-11-04T08:18:35.896Z,19.20
2022-11-04T08:21:04.926Z,19.20
2022-11-04T08:23:34.491Z,19.20
2022-11-04T08:26:03.241Z,19.20
2022-11-04T08:28:31.413Z,19.20
2022-11-04T08:31:02.669Z,19.20
2022-11-04T08:33:33.748Z,19.20
2022-11-04T08:36:07.115Z,19.20
2022-11-04T08:38:35.499Z,19.20
2022-11-04T08:41:05.727Z,19.20
2022-11-04T08:43:35.035Z,19.20
2022-11-04T08:46:05.157Z,19.20
2022-11-04T08:48:35.711Z,19.20
2022-11-04T08:51:05.851Z,19.30
2022-11-04T08:53:34.294Z,19.30
2022-11-04T08:56:10.898Z,19.30
2022-11-04T08:58:39.216Z,19.30
2022-11-04T09:01:08.200Z,19.30
2022-11-04T09:03:38.655Z,19.30
2022-11-04T09:06:07.816Z,19.30
2022-11-04T09:08:37.975Z,19.30
2022-11-04T09:11:08.482Z,19.30
2022-11-04T09:13:39.598Z,19.00
2022-11-04T09:16:10.253Z,18.80
2022-11-04T09:18:39.912Z,18.50
2022-11-04T09:21:09.945Z,18.30
2022-11-04T09:23:38.377Z,18.10
2022-11-04T09:26:09.036Z,18.00
2022-11-04T09:28:37.354Z,17.90
2022-11-04T09:31:09.934Z,17.70
2022-11-04T09:33:39.681Z,17.60
2022-11-04T09:36:09.304Z,17.50
2022-11-04T09:38:37.963Z,17.40
2022-11-04T09:41:24.953Z,17.40
2022-11-04T09:43:58.569Z,17.30
2022-11-04T09:46:28.013Z,17.20
2022-11-04T09:48:59.257Z,17.20
2022-11-04T09:51:56.273Z,17.20
2022-11-04T09:54:22.192Z,17.20
2022-11-04T09:56:53.124Z,17.20
2022-11-04T09:59:28.413Z,17.20
2022-11-04T10:02:05.356Z,17.20
2022-11-04T10:04:46.672Z,17.20
2022-11-04T10:07:31.829Z,17.30
2022-11-04T16:02:27.845Z,17.30
2022-11-04T16:05:09.387Z,16.50
2022-11-04T16:07:40.013Z,16.50
2022-11-04T16:10:26.560Z,16.50
2022-11-04T16:12:57.661Z,16.40
2022-11-04T16:15:34.528Z,16.30
2022-11-04T16:18:03.919Z,16.20
2022-11-04T16:50:36.410Z,16.10
2022-11-04T16:53:05.926Z,15.70
2022-11-04T16:55:34.319Z,15.70
2022-11-04T16:58:04.686Z,15.70
2022-11-04T17:00:34.003Z,15.60
2022-11-04T17:03:05.125Z,15.60
2022-11-04T17:05:33.311Z,15.60
2022-11-04T17:08:05.256Z,15.60
2022-11-04T17:10:37.085Z,15.60
2022-11-04T17:13:05.246Z,15.60
2022-11-04T17:15:33.475Z,15.60
2022-11-04T17:18:01.701Z,15.50
2022-11-04T17:20:31.837Z,15.50
2022-11-04T17:23:00.025Z,15.50
2022-11-04T17:25:30.227Z,15.50
2022-11-04T17:27:59.770Z,15.50
2022-11-04T17:30:27.974Z,15.50
2022-11-04T17:32:56.178Z,15.40
2022-11-04T17:35:24.734Z,15.40
2022-11-04T17:37:53.831Z,15.40
2022-11-04T17:40:24.898Z,15.30
2022-11-04T17:43:12.560Z,15.30
2022-11-04T17:45:43.669Z,15.30
2022-11-04T17:48:14.126Z,15.30
2022-11-04T17:50:42.637Z,15.30
2022-11-04T17:53:11.461Z,15.30
2022-11-04T17:55:41.510Z,15.30
2022-11-04T17:58:10.085Z,15.30
2022-11-04T18:00:38.385Z,15.30
2022-11-04T18:03:09.034Z,15.20
2022-11-04T18:05:38.550Z,15.20
2022-11-04T18:08:06.787Z,15.20
2022-11-04T18:10:35.022Z,15.10
2022-11-04T18:13:02.174Z,15.20
2022-11-04T18:17:59.760Z,15.10
2022-11-04T18:20:29.387Z,15.00
2022-11-04T18:22:57.566Z,15.00
2022-11-04T18:25:25.819Z,14.90
2022-11-04T18:27:53.980Z,14.90
2022-11-04T18:30:22.544Z,14.80
2022-11-04T18:32:50.846Z,14.80
2022-11-04T18:35:19.253Z,14.70
2022-11-04T18:37:48.870Z,14.70
2022-11-04T18:40:17.852Z,14.60
2022-11-04T18:42:46.026Z,14.60
2022-11-04T18:45:14.291Z,14.50
2022-11-04T18:47:42.446Z,14.50
2022-11-04T18:50:11.556Z,14.50
2022-11-04T18:52:40.476Z,14.50
2022-11-04T18:55:11.013Z,14.40
2022-11-04T18:57:39.164Z,14.50
2022-11-04T19:00:12.891Z,14.40
2022-11-04T19:02:44.136Z,14.40
2022-11-04T19:05:12.477Z,14.40
2022-11-04T19:07:42.004Z,14.30
2022-11-04T19:10:12.783Z,14.30
2022-11-04T19:12:58.916Z,14.20
2022-11-04T19:15:27.302Z,14.20
2022-11-04T19:17:55.475Z,14.10
2022-11-04T19:20:24.013Z,14.10
2022-11-04T19:22:52.335Z,14.00
2022-11-04T19:25:22.353Z,14.00
2022-11-04T19:28:11.563Z,13.90
2022-11-04T19:30:38.760Z,13.90
2022-11-04T19:33:06.973Z,13.90
2022-11-04T19:35:35.098Z,13.80
2022-11-04T19:38:03.405Z,13.80
2022-11-04T19:40:34.707Z,13.80
2022-11-04T19:43:10.973Z,13.70
2022-11-04T19:45:40.729Z,13.70
2022-11-04T19:48:09.826Z,13.70
2022-11-04T19:50:43.083Z,13.60
2022-11-04T19:53:11.837Z,13.70
2022-11-04T19:55:41.533Z,13.60
2022-11-04T19:58:10.086Z,13.60
2022-11-04T20:00:41.041Z,13.60
2022-11-04T20:03:09.301Z,13.50
2022-11-04T20:05:41.008Z,13.50
2022-11-04T20:08:10.284Z,13.50
2022-11-04T20:10:41.600Z,13.40
2022-11-04T20:13:33.560Z,13.40
2022-11-04T20:16:03.124Z,13.40
2022-11-04T20:18:31.362Z,13.40
2022-11-04T20:20:59.508Z,13.30
2022-11-04T20:23:27.738Z,13.30
2022-11-04T20:25:57.389Z,13.20
2022-11-04T20:28:26.316Z,13.20
2022-11-04T20:30:54.542Z,13.20
2022-11-04T20:33:22.829Z,13.20
2022-11-04T20:35:51.033Z,13.20
2022-11-04T20:38:19.232Z,13.20
2022-11-04T20:40:48.391Z,13.20
2022-11-04T20:43:17.914Z,13.20
2022-11-04T20:45:52.075Z,13.20
2022-11-04T20:48:20.602Z,13.10
2022-11-04T20:50:48.882Z,13.10
2022-11-04T20:53:17.128Z,13.10
2022-11-04T20:55:45.317Z,13.10
2022-11-04T20:58:13.626Z,13.10
2022-11-04T21:00:43.200Z,13.10
2022-11-04T21:03:11.424Z,13.00
2022-11-04T21:05:39.973Z,13.00
2022-11-04T21:08:08.481Z,13.00
2022-11-04T21:10:37.470Z,13.00
2022-11-04T21:13:05.639Z,13.00
2022-11-04T21:15:44.407Z,13.00
2022-11-04T21:18:14.398Z,13.00
2022-11-04T21:20:43.691Z,13.00
2022-11-04T21:23:12.942Z,12.90
2022-11-04T21:25:43.369Z,12.90
2022-11-04T21:28:12.311Z,12.90
2022-11-04T21:30:44.702Z,12.90
2022-11-04T21:33:14.405Z,12.90
2022-11-04T21:35:44.038Z,12.90
2022-11-04T21:38:15.491Z,13.00
2022-11-04T21:40:44.585Z,13.00
2022-11-04T21:43:14.039Z,13.00
2022-11-04T21:45:42.222Z,13.00
2022-11-04T21:48:10.736Z,13.00
2022-11-04T21:50:40.673Z,13.00
2022-11-04T21:53:08.921Z,13.00
2022-11-04T21:55:37.066Z,13.00
2022-11-04T21:58:05.226Z,13.00
2022-11-04T22:00:33.443Z,13.00
2022-11-04T22:03:01.605Z,13.00
2022-11-04T22:05:29.730Z,13.00
2022-11-04T22:08:16.688Z,13.00
2022-11-04T22:10:45.335Z,13.00
2022-11-04T22:13:13.571Z,13.00
2022-11-04T22:16:00.614Z,13.00
2022-11-04T22:18:30.441Z,13.00
2022-11-04T22:21:02.267Z,13.00
2022-11-04T22:23:32.087Z,12.90
2022-11-04T22:26:01.361Z,13.00
2022-11-04T22:28:30.174Z,13.00
2022-11-04T22:30:58.541Z,13.00
2022-11-04T22:33:31.511Z,13.00
2022-11-04T22:36:00.178Z,13.00
2022-11-04T22:38:28.468Z,13.00
2022-11-04T22:40:59.499Z,13.10
2022-11-04T22:43:28.090Z,13.10
2022-11-04T22:45:57.698Z,13.10
2022-11-04T22:48:25.968Z,13.10
2022-11-04T22:50:58.784Z,13.10
2022-11-04T22:53:27.402Z,13.10
2022-11-04T22:56:00.130Z,13.20
2022-11-04T22:58:28.825Z,13.20
2022-11-04T23:00:59.147Z,13.20
2022-11-04T23:03:27.912Z,13.20
2022-11-04T23:05:57.008Z,13.20
2022-11-04T23:08:25.850Z,13.20
2022-11-04T23:11:17.724Z,13.20
2022-11-04T23:14:08.740Z,13.20
2022-11-04T23:16:54.664Z,13.20
2022-11-04T23:19:28.281Z,13.20
2022-11-04T23:22:16.213Z,13.20
2022-11-04T23:25:02.142Z,13.20
2022-11-04T23:27:49.208Z,13.20
2022-11-04T23:30:25.612Z,13.20
2022-11-04T23:32:56.214Z,13.10
2022-11-04T23:35:43.556Z,13.20
2022-11-04T23:38:11.841Z,13.10
2022-11-04T23:40:40.206Z,13.20
2022-11-04T23:43:09.205Z,13.10
2022-11-04T23:46:09.389Z,13.10
2022-11-04T23:48:55.232Z,13.10
2022-11-04T23:51:40.640Z,13.10
2022-11-04T23:54:26.613Z,13.10
2022-11-04T23:57:12.183Z,13.10
2022-11-04T23:59:59.130Z,13.10
